createdAt,value
2022-11-12T00:02:12.960Z,102464.65
2022-11-12T00:04:59.798Z,102464.30
2022-11-12T00:07:46.338Z,102467.91
2022-11-12T00:10:33.508Z,102466.89
2022-11-12T00:13:20.012Z,102471.11
2022-11-12T00:16:06.623Z,102473.55
2022-11-12T00:18:53.430Z,102474.23
2022-11-12T00:21:39.730Z,102472.17
2022-11-12T00:24:26.337Z,102471.19
2022-11-12T00:27:13.313Z,102470.98
2022-11-12T00:29:59.997Z,102475.02
2022-11-12T00:32:46.725Z,102479.02
2022-11-12T00:35:33.961Z,102478.60
2022-11-12T00:38:20.728Z,102476.53
2022-11-12T00:41:07.371Z,102474.73
2022-11-12T00:43:54.287Z,102478.52
2022-11-12T00:46:40.815Z,102477.73
2022-11-12T00:49:27.281Z,102478.09
2022-11-12T00:52:13.922Z,102483.48
2022-11-12T00:55:00.295Z,102486.73
2022-11-12T00:57:46.787Z,102487.37
2022-11-12T01:00:33.050Z,102487.55
2022-11-12T01:03:19.727Z,102487.90
2022-11-12T01:06:13.043Z,102482.29
2022-11-12T01:08:59.736Z,102481.91
2022-11-12T01:11:46.706Z,102482.52
2022-11-12T01:14:33.841Z,102483.89
2022-11-12T01:17:20.055Z,102486.75
2022-11-12T01:20:07.475Z,102485.27
2022-11-12T01:22:54.103Z,102488.65
2022-11-12T01:25:41.040Z,102490.01
2022-11-12T01:28:30.699Z,102486.46
2022-11-12T01:31:26.960Z,102489.46
2022-11-12T01:34:13.613Z,102490.38
2022-11-12T01:37:00.179Z,102490.25
2022-11-12T01:39:46.968Z,102483.52
2022-11-12T01:42:33.778Z,102482.83
2022-11-12T01:45:20.761Z,102487.30
2022-11-12T01:48:13.784Z,102489.92
2022-11-12T01:51:02.141Z,102485.29
2022-11-12T01:53:53.182Z,102488.23
2022-11-12T01:56:42.437Z,102491.39
2022-11-12T01:59:38.178Z,102493.54
2022-11-12T02:02:24.809Z,102493.95
2022-11-12T02:05:12.364Z,102494.98
2022-11-12T02:08:00.844Z,102496.27
2022-11-12T02:10:47.742Z,102495.27
2022-11-12T02:13:53.058Z,102497.85
2022-11-12T02:16:42.087Z,102501.20
2022-11-12T02:19:28.669Z,102502.32
2022-11-12T02:22:15.393Z,102501.64
2022-11-12T02:25:01.811Z,102501.86
2022-11-12T02:27:51.767Z,102504.50
2022-11-12T02:30:46.186Z,102506.25
2022-11-12T02:33:32.580Z,102504.31
2022-11-12T02:36:20.035Z,102509.98
2022-11-12T02:39:06.437Z,102509.95
2022-11-12T02:41:53.121Z,102507.89
2022-11-12T02:44:39.838Z,102510.67
2022-11-12T02:47:26.143Z,102511.66
2022-11-12T02:50:13.129Z,102514.55
2022-11-12T02:52:59.616Z,102515.52
2022-11-12T02:55:46.065Z,102522.10
2022-11-12T02:58:33.201Z,102526.36
2022-11-12T03:01:19.439Z,102527.23
2022-11-12T03:04:05.707Z,102525.05
2022-11-12T03:06:52.671Z,102526.96
2022-11-12T03:09:39.589Z,102531.77
2022-11-12T03:12:26.163Z,102533.82
2022-11-12T03:15:14.669Z,102533.17
2022-11-12T03:18:01.291Z,102534.35
2022-11-12T03:20:51.906Z,102535.16
2022-11-12T03:23:38.298Z,102536.98
2022-11-12T03:26:25.076Z,102541.46
2022-11-12T03:29:11.862Z,102543.77
2022-11-12T03:31:58.275Z,102548.25
2022-11-12T03:34:44.753Z,102556.16
2022-11-12T03:37:31.553Z,102551.91
2022-11-12T03:40:18.708Z,102546.48
2022-11-12T03:43:05.523Z,102547.09
2022-11-12T03:45:52.088Z,102544.83
2022-11-12T03:48:38.590Z,102543.80
2022-11-12T03:51:24.723Z,102544.23
2022-11-12T03:54:11.518Z,102543.33
2022-11-12T03:56:58.047Z,102545.41
2022-11-12T03:59:44.326Z,102543.56
2022-11-12T04:02:32.498Z,102541.10
2022-11-12T04:05:37.689Z,102543.73
2022-11-12T04:08:37.234Z,102539.05
2022-11-12T04:11:23.691Z,102548.96
2022-11-12T04:14:10.002Z,102547.32
2022-11-12T04:17:15.491Z,102546.60
2022-11-12T04:20:20.753Z,102546.52
2022-11-12T04:23:07.225Z,102552.54
2022-11-12T04:26:13.211Z,102551.55
2022-11-12T04:29:18.255Z,102556.54
2022-11-12T04:32:04.681Z,102559.09
2022-11-12T04:34:52.076Z,102562.46
2022-11-12T04:37:44.877Z,102558.15
2022-11-12T04:40:50.655Z,102556.23
2022-11-12T04:43:55.526Z,102557.54
2022-11-12T04:46:42.096Z,102556.18
2022-11-12T04:49:28.910Z,102560.05
2022-11-12T04:52:15.576Z,102561.33
2022-11-12T04:55:01.935Z,102557.70
2022-11-12T04:57:48.498Z,102560.17
2022-11-12T05:00:35.298Z,102564.59
2022-11-12T05:03:21.965Z,102565.21
2022-11-12T05:06:28.360Z,102564.52
2022-11-12T05:09:14.843Z,102560.14
2022-11-12T05:12:01.555Z,102563.02
2022-11-12T05:14:47.789Z,102564.81
2022-11-12T05:17:34.799Z,102566.23
2022-11-12T05:20:21.352Z,102564.09
2022-11-12T05:23:08.109Z,102563.60
2022-11-12T05:25:54.847Z,102558.08
2022-11-12T05:28:41.454Z,102557.33
2022-11-12T05:31:27.717Z,102562.41
2022-11-12T05:34:17.447Z,102565.30
2022-11-12T05:37:07.966Z,102570.11
2022-11-12T05:39:54.708Z,102572.13
2022-11-12T05:42:40.803Z,102569.36
2022-11-12T05:45:27.367Z,102573.85
2022-11-12T05:48:16.937Z,102575.02
2022-11-12T05:51:12.985Z,102574.02
2022-11-12T05:54:01.292Z,102573.70
2022-11-12T05:56:52.221Z,102572.40
2022-11-12T05:59:39.922Z,102571.84
2022-11-12T06:02:26.401Z,102573.09
2022-11-12T06:05:13.395Z,102570.93
2022-11-12T06:08:00.847Z,102569.81
2022-11-12T06:10:52.274Z,102567.95
2022-11-12T06:13:38.707Z,102570.06
2022-11-12T06:16:26.604Z,102573.12
2022-11-12T06:19:13.450Z,102574.59
2022-11-12T06:22:00.111Z,102570.09
2022-11-12T06:24:46.846Z,102575.59
2022-11-12T06:27:33.577Z,102583.83
2022-11-12T06:30:25.525Z,102581.05
2022-11-12T06:33:12.979Z,102577.30
2022-11-12T06:36:03.356Z,102580.48
2022-11-12T06:38:50.103Z,102584.73
2022-11-12T06:41:36.497Z,102583.83
2022-11-12T06:44:23.230Z,102587.57
2022-11-12T06:47:11.955Z,102592.48
2022-11-12T06:49:58.384Z,102590.89
2022-11-12T06:52:45.296Z,102596.04
2022-11-12T06:55:32.256Z,102597.77
2022-11-12T06:58:18.930Z,102600.67
2022-11-12T07:01:11.548Z,102599.61
2022-11-12T07:03:59.251Z,102597.77
2022-11-12T07:06:45.880Z,102597.83
2022-11-12T07:09:33.052Z,102596.46
2022-11-12T07:12:20.037Z,102594.98
2022-11-12T07:15:06.904Z,102596.19
2022-11-12T07:17:57.533Z,102602.98
2022-11-12T07:20:44.884Z,102611.30
2022-11-12T07:23:33.991Z,102606.52
2022-11-12T07:26:23.482Z,102607.45
2022-11-12T07:29:24.844Z,102602.91
2022-11-12T07:32:20.742Z,102596.50
2022-11-12T07:35:09.163Z,102596.00
2022-11-12T07:37:59.389Z,102599.41
2022-11-12T07:40:46.268Z,102599.90
2022-11-12T07:43:34.920Z,102600.53
2022-11-12T07:46:23.990Z,102608.48
2022-11-12T07:49:12.793Z,102612.14
2022-11-12T07:52:00.046Z,102610.85
2022-11-12T07:54:47.351Z,102608.27
2022-11-12T07:57:35.060Z,102608.30
2022-11-12T08:00:23.934Z,102607.73
2022-11-12T08:03:12.545Z,102604.70
2022-11-12T08:06:01.935Z,102603.35
2022-11-12T08:08:56.787Z,102603.41
2022-11-12T08:11:43.726Z,102602.69
2022-11-12T08:14:30.241Z,102602.70
2022-11-12T08:17:16.895Z,102603.48
2022-11-12T08:20:04.056Z,102609.09
2022-11-12T08:22:51.651Z,102611.81
2022-11-12T08:25:38.527Z,102619.24
2022-11-12T08:28:25.768Z,102615.36
2022-11-12T08:31:15.884Z,102618.95
2022-11-12T08:34:12.433Z,102622.36
2022-11-12T08:37:00.747Z,102618.80
2022-11-12T08:39:48.081Z,102615.04
2022-11-12T08:42:35.024Z,102613.99
2022-11-12T08:45:21.795Z,102622.30
2022-11-12T08:48:11.578Z,102618.95
2022-11-12T08:50:58.685Z,102619.43
2022-11-12T08:53:45.776Z,102625.77
2022-11-12T08:56:32.228Z,102624.42
2022-11-12T08:59:19.219Z,102638.91
2022-11-12T09:02:06.977Z,102637.45
2022-11-12T09:04:53.433Z,102637.66
2022-11-12T09:07:49.814Z,102634.50
2022-11-12T09:10:38.421Z,102636.04
2022-11-12T09:13:25.035Z,102635.52
2022-11-12T09:16:11.711Z,102641.11
2022-11-12T09:18:57.974Z,102640.92
2022-11-12T09:21:44.686Z,102645.81
2022-11-12T09:24:31.474Z,102642.25
2022-11-12T09:27:18.106Z,102648.81
2022-11-12T09:30:06.818Z,102650.45
2022-11-12T09:32:58.064Z,102652.09
2022-11-12T09:35:46.549Z,102648.75
2022-11-12T09:38:33.306Z,102653.23
2022-11-12T09:41:27.469Z,102656.50
2022-11-12T09:44:18.332Z,102649.02
2022-11-12T09:47:17.987Z,102647.96
2022-11-12T09:50:28.973Z,102651.27
2022-11-12T09:53:34.609Z,102651.78
2022-11-12T09:56:22.706Z,102652.91
2022-11-12T09:59:13.972Z,102656.27
2022-11-12T10:02:26.084Z,102656.55
2022-11-12T10:05:29.251Z,102652.43
2022-11-12T10:08:39.352Z,102656.14
2022-11-12T10:12:04.434Z,102661.02
2022-11-12T10:15:34.253Z,102662.90
2022-11-12T10:18:39.923Z,102661.24
2022-11-12T10:22:04.868Z,102660.88
2022-11-12T10:24:52.534Z,102662.98
2022-11-12T10:27:42.675Z,102657.63
2022-11-12T10:30:30.051Z,102662.45
2022-11-12T10:33:21.035Z,102661.94
2022-11-12T10:36:34.799Z,102657.38
2022-11-12T10:39:39.208Z,102659.20
2022-11-12T10:42:31.140Z,102656.68
2022-11-12T10:45:23.087Z,102651.70
2022-11-12T10:48:41.176Z,102653.70
2022-11-12T10:51:58.149Z,102653.28
2022-11-12T10:54:49.670Z,102644.76
2022-11-12T10:57:39.525Z,102657.19
2022-11-12T11:00:27.070Z,102658.85
2022-11-12T11:03:24.156Z,102645.88
2022-11-12T11:06:17.674Z,102651.30
2022-11-12T11:09:13.450Z,102644.84
2022-11-12T11:12:01.913Z,102651.59
2022-11-12T11:15:07.958Z,102639.91
2022-11-12T11:17:55.483Z,102656.92
2022-11-12T11:20:47.618Z,102655.04
2022-11-12T11:24:02.348Z,102640.42
2022-11-12T11:27:14.557Z,102661.86
2022-11-12T11:30:12.458Z,102658.77
2022-11-12T11:33:43.811Z,102654.71
2022-11-12T11:36:43.734Z,102655.44
2022-11-12T11:39:56.790Z,102653.61
2022-11-12T11:42:52.447Z,102657.83
2022-11-12T11:45:59.503Z,102649.27
2022-11-12T11:48:53.851Z,102649.98
2022-11-12T11:52:22.401Z,102652.04
2022-11-12T11:55:38.684Z,102645.65
2022-11-12T11:58:43.870Z,102641.37
2022-11-12T12:02:05.248Z,102638.29
2022-11-12T12:04:58.738Z,102638.84
2022-11-12T12:08:02.425Z,102641.03
2022-11-12T12:11:09.398Z,102637.53
2022-11-12T12:14:06.782Z,102630.88
2022-11-12T12:17:18.166Z,102631.49
2022-11-12T12:20:30.370Z,102635.71
2022-11-12T12:23:33.498Z,102636.88
2022-11-12T12:26:33.925Z,102641.84
2022-11-12T12:29:39.663Z,102635.66
2022-11-12T12:32:41.190Z,102634.00
2022-11-12T12:35:44.567Z,102631.77
2022-11-12T12:38:45.787Z,102634.56
2022-11-12T12:41:37.670Z,102639.48
2022-11-12T12:44:50.285Z,102637.02
2022-11-12T12:47:43.412Z,102631.26
2022-11-12T12:50:30.958Z,102631.69
2022-11-12T12:53:31.643Z,102632.55
2022-11-12T12:56:46.547Z,102634.30
2022-11-12T12:59:33.901Z,102633.91
2022-11-12T13:02:23.753Z,102632.30
2022-11-12T13:05:25.054Z,102626.05
2022-11-12T13:08:23.962Z,102623.92
2022-11-12T13:11:11.139Z,102625.81
2022-11-12T13:14:37.118Z,102619.70
2022-11-12T13:17:45.488Z,102627.44
2022-11-12T13:20:35.887Z,102618.45
2022-11-12T13:24:09.698Z,102622.31
2022-11-12T13:27:02.819Z,102618.52
2022-11-12T13:29:51.382Z,102617.92
2022-11-12T13:32:54.548Z,102620.52
2022-11-12T13:35:42.485Z,102616.20
2022-11-12T13:38:38.374Z,102613.35
2022-11-12T13:41:46.439Z,102611.33
2022-11-12T13:44:35.507Z,102615.38
2022-11-12T13:47:25.513Z,102615.15
2022-11-12T13:50:20.663Z,102607.90
2022-11-12T13:53:13.849Z,102605.66
2022-11-12T13:56:02.734Z,102607.61
2022-11-12T13:58:50.963Z,102607.15
2022-11-12T14:01:39.118Z,102604.01
2022-11-12T14:04:27.220Z,102604.76
2022-11-12T14:07:24.761Z,102598.19
2022-11-12T14:10:46.044Z,102593.25
2022-11-12T14:13:49.896Z,102602.62
2022-11-12T14:17:21.945Z,102605.83
2022-11-12T14:20:37.124Z,102601.73
2022-11-12T14:23:27.164Z,102589.67
2022-11-12T14:26:35.463Z,102590.56
2022-11-12T14:29:23.284Z,102600.48
2022-11-12T14:32:10.218Z,102599.55
2022-11-12T14:34:57.354Z,102600.63
2022-11-12T14:37:59.609Z,102597.96
2022-11-12T14:40:56.378Z,102595.05
2022-11-12T14:43:48.865Z,102598.98
2022-11-12T14:46:48.912Z,102596.63
2022-11-12T14:49:44.955Z,102602.93
2022-11-12T14:52:40.691Z,102604.77
2022-11-12T14:55:33.988Z,102596.84
2022-11-12T14:58:23.969Z,102595.02
2022-11-12T15:01:47.779Z,102594.81
2022-11-12T15:04:26.342Z,102598.04
2022-11-12T15:07:30.027Z,102605.98
2022-11-12T15:10:32.305Z,102600.63
2022-11-12T15:13:22.881Z,102602.89
2022-11-12T15:16:12.220Z,102607.29
2022-11-12T15:19:15.582Z,102605.46
2022-11-12T15:22:04.468Z,102608.52
2022-11-12T15:24:52.246Z,102609.65
2022-11-12T15:27:42.777Z,102611.96
2022-11-12T15:30:32.133Z,102609.52
2022-11-12T15:33:22.689Z,102608.30
2022-11-12T15:36:18.500Z,102606.83
2022-11-12T15:39:13.403Z,102605.27
2022-11-12T15:42:04.024Z,102601.92
2022-11-12T15:44:56.600Z,102605.50
2022-11-12T15:47:44.095Z,102609.11
2022-11-12T15:50:34.753Z,102604.97
2022-11-12T15:53:34.643Z,102608.42
2022-11-12T15:56:23.096Z,102606.98
2022-11-12T15:59:17.291Z,102598.63
2022-11-12T16:02:11.248Z,102602.54
2022-11-12T16:04:59.168Z,102606.18
2022-11-12T16:07:46.518Z,102607.17
2022-11-12T16:10:37.574Z,102611.88
2022-11-12T16:13:27.902Z,102608.31
2022-11-12T16:16:17.199Z,102609.70
2022-11-12T16:19:05.071Z,102616.32
2022-11-12T16:21:52.210Z,102617.67
2022-11-12T16:24:40.907Z,102615.38
2022-11-12T16:27:27.776Z,102608.65
2022-11-12T16:30:20.855Z,102614.36
2022-11-12T16:33:12.048Z,102615.70
2022-11-12T16:35:58.962Z,102620.75
2022-11-12T16:38:46.882Z,102613.05
2022-11-12T16:41:33.423Z,102615.46
2022-11-12T16:44:20.361Z,102619.41
2022-11-12T16:47:11.069Z,102618.69
2022-11-12T16:49:58.045Z,102621.04
2022-11-12T16:52:45.125Z,102621.41
2022-11-12T16:55:31.814Z,102618.55
2022-11-12T16:58:18.304Z,102618.58
2022-11-12T17:01:05.842Z,102619.14
2022-11-12T17:03:54.824Z,102616.15
2022-11-12T17:06:42.683Z,102621.45
2022-11-12T17:09:30.043Z,102621.27
2022-11-12T17:12:16.929Z,102613.16
2022-11-12T17:15:05.518Z,102615.78
2022-11-12T17:17:55.831Z,102614.73
2022-11-12T17:20:48.358Z,102615.90
2022-11-12T17:23:39.400Z,102613.21
2022-11-12T17:26:26.888Z,102614.03
2022-11-12T17:29:13.699Z,102613.19
2022-11-12T17:32:00.820Z,102618.80
2022-11-12T17:34:48.226Z,102613.29
2022-11-12T17:37:35.273Z,102612.58
2022-11-12T17:40:22.116Z,102609.34
2022-11-12T17:43:09.327Z,102614.82
2022-11-12T17:45:57.457Z,102614.38
2022-11-12T17:48:44.817Z,102613.71
2022-11-12T17:51:32.222Z,102617.65
2022-11-12T17:54:21.475Z,102611.40
2022-11-12T17:57:08.912Z,102609.77
2022-11-12T18:00:00.036Z,102606.53
2022-11-12T18:02:48.195Z,102603.05
2022-11-12T18:05:42.933Z,102603.27
2022-11-12T18:08:30.932Z,102599.75
2022-11-12T18:11:21.247Z,102599.95
2022-11-12T18:14:09.692Z,102595.39
2022-11-12T18:16:59.725Z,102593.70
2022-11-12T18:19:47.986Z,102597.75
2022-11-12T18:22:40.737Z,102593.21
2022-11-12T18:25:36.975Z,102597.44
2022-11-12T18:28:24.169Z,102602.08
2022-11-12T18:31:13.054Z,102601.16
2022-11-12T18:34:00.177Z,102600.58
2022-11-12T18:36:47.105Z,102601.65
2022-11-12T18:39:34.730Z,102612.00
2022-11-12T18:42:24.718Z,102613.83
2022-11-12T18:45:12.662Z,102608.42
2022-11-12T18:48:01.035Z,102608.66
2022-11-12T18:50:47.640Z,102608.77
2022-11-12T18:53:36.210Z,102613.55
2022-11-12T18:56:23.841Z,102615.63
2022-11-12T18:59:14.472Z,102616.92
2022-11-12T19:02:03.579Z,102623.35
2022-11-12T19:04:50.821Z,102624.29
2022-11-12T19:07:38.758Z,102630.13
2022-11-12T19:10:29.318Z,102630.02
2022-11-12T19:13:18.572Z,102632.14
2022-11-12T19:16:12.122Z,102632.55
2022-11-12T19:19:00.508Z,102635.48
2022-11-12T19:21:49.479Z,102636.73
2022-11-12T19:24:38.567Z,102632.59
2022-11-12T19:27:28.117Z,102635.30
2022-11-12T19:30:18.014Z,102632.14
2022-11-12T19:33:07.288Z,102635.16
2022-11-12T19:35:54.886Z,102637.32
2022-11-12T19:38:42.933Z,102634.98
2022-11-12T19:41:30.413Z,102636.92
2022-11-12T19:44:17.272Z,102640.31
2022-11-12T19:47:04.897Z,102640.11
2022-11-12T19:49:51.558Z,102638.81
2022-11-12T19:52:38.478Z,102637.03
2022-11-12T19:55:29.927Z,102631.94
2022-11-12T19:58:17.319Z,102632.08
2022-11-12T20:01:11.676Z,102630.55
2022-11-12T20:03:59.812Z,102628.92
2022-11-12T20:06:50.078Z,102634.84
2022-11-12T20:09:38.183Z,102632.92
2022-11-12T20:12:25.709Z,102634.87
2022-11-12T20:15:13.502Z,102633.58
2022-11-12T20:18:00.881Z,102627.08
2022-11-12T20:20:53.851Z,102633.17
2022-11-12T20:23:43.419Z,102640.68
2022-11-12T20:26:30.798Z,102632.91
2022-11-12T20:29:17.793Z,102630.57
2022-11-12T20:32:05.352Z,102643.11
2022-11-12T20:34:53.472Z,102645.36
2022-11-12T20:37:43.645Z,102646.77
2022-11-12T20:40:32.144Z,102639.08
2022-11-12T20:43:19.472Z,102639.77
2022-11-12T20:46:06.529Z,102642.86
2022-11-12T20:48:57.184Z,102630.55
2022-11-12T20:51:44.875Z,102631.61
2022-11-12T20:54:31.855Z,102629.41
2022-11-12T20:57:22.355Z,102630.77
2022-11-12T21:00:13.706Z,102627.35
2022-11-12T21:03:03.116Z,102633.33
2022-11-12T21:05:58.293Z,102637.38
2022-11-12T21:08:46.657Z,102624.15
2022-11-12T21:11:33.938Z,102630.80
2022-11-12T21:14:21.677Z,102633.38
2022-11-12T21:17:08.509Z,102625.85
2022-11-12T21:19:55.861Z,102628.97
2022-11-12T21:22:42.722Z,102625.98
2022-11-12T21:25:30.549Z,102623.10
2022-11-12T21:28:17.424Z,102625.27
2022-11-12T21:31:06.205Z,102620.03
2022-11-12T21:34:00.450Z,102624.33
2022-11-12T21:36:47.880Z,102622.22
2022-11-12T21:39:37.019Z,102621.91
2022-11-12T21:42:23.998Z,102626.41
2022-11-12T21:45:12.080Z,102618.38
2022-11-12T21:47:59.034Z,102619.29
2022-11-12T21:50:46.132Z,102617.32
2022-11-12T21:53:34.011Z,102620.27
2022-11-12T21:56:20.726Z,102621.75
2022-11-12T21:59:07.599Z,102624.66
2022-11-12T22:01:55.081Z,102625.98
2022-11-12T22:04:42.203Z,102625.34
2022-11-12T22:07:29.735Z,102623.33
2022-11-12T22:10:17.622Z,102617.16
2022-11-12T22:13:26.019Z,102619.88
2022-11-12T22:16:17.378Z,102618.79
2022-11-12T22:19:04.418Z,102615.52
2022-11-12T22:21:50.800Z,102618.27
2022-11-12T22:24:39.823Z,102608.55
2022-11-12T22:30:34.238Z,102605.42
2022-11-12T22:33:20.185Z,102601.23
2022-11-12T22:36:08.478Z,102598.08
2022-11-12T22:38:55.326Z,102606.98
2022-11-12T22:41:40.792Z,102603.73
2022-11-12T22:44:25.894Z,102591.15
2022-11-12T22:47:11.239Z,102590.77
2022-11-12T22:49:57.004Z,102593.98
2022-11-12T22:52:48.811Z,102594.81
2022-11-12T22:55:35.286Z,102593.32
2022-11-12T22:58:21.607Z,102593.00
2022-11-12T23:01:10.763Z,102590.34
2022-11-12T23:03:58.538Z,102591.30
2022-11-12T23:06:43.810Z,102589.77
2022-11-12T23:09:29.084Z,102587.42
2022-11-12T23:12:15.563Z,102580.23
2022-11-12T23:15:00.505Z,102578.66
2022-11-12T23:17:45.795Z,102587.05
2022-11-12T23:20:31.204Z,102577.45
2022-11-12T23:23:16.430Z,102581.58
2022-11-12T23:26:03.752Z,102575.29
2022-11-12T23:28:49.016Z,102583.79
2022-11-12T23:31:35.023Z,102587.31
2022-11-12T23:34:21.228Z,102588.94
2022-11-12T23:37:08.296Z,102591.77
2022-11-12T23:39:54.531Z,102592.20
2022-11-12T23:42:41.005Z,102592.76
2022-11-12T23:45:26.300Z,102593.17
2022-11-12T23:48:11.412Z,102588.60
2022-11-12T23:51:05.901Z,102596.11
2022-11-12T23:53:51.656Z,102594.66
2022-11-12T23:56:36.773Z,102597.27
2022-11-12T23:59:21.754Z,102590.30
